createdAt,value
2023-01-12T00:02:00.007Z,92.48
2023-01-12T00:04:27.073Z,92.69
2023-01-12T00:06:54.751Z,92.77
2023-01-12T00:09:21.741Z,92.58
2023-01-12T00:11:48.766Z,92.72
2023-01-12T00:14:16.089Z,92.80
2023-01-12T00:16:43.336Z,92.62
2023-01-12T00:19:21.928Z,92.51
2023-01-12T00:22:11.496Z,92.72
2023-01-12T00:24:43.933Z,92.60
2023-01-12T00:27:15.273Z,92.69
2023-01-12T00:29:42.694Z,92.42
2023-01-12T00:32:18.825Z,92.37
2023-01-12T00:34:45.886Z,92.84
2023-01-12T00:37:13.201Z,92.89
2023-01-12T00:39:45.812Z,92.66
2023-01-12T00:42:34.202Z,92.44
2023-01-12T00:45:19.495Z,92.89
2023-01-12T00:47:46.454Z,92.76
2023-01-12T00:50:14.321Z,92.54
2023-01-12T00:52:41.253Z,92.35
2023-01-12T00:55:08.874Z,92.46
2023-01-12T00:57:36.188Z,92.45
2023-01-12T01:00:03.932Z,92.29
2023-01-12T01:02:31.371Z,92.87
2023-01-12T01:04:58.297Z,92.41
2023-01-12T01:07:25.551Z,92.78
2023-01-12T01:09:52.535Z,92.84
2023-01-12T01:12:19.770Z,92.62
2023-01-12T01:14:48.274Z,92.80
2023-01-12T01:17:15.528Z,92.41
2023-01-12T01:19:43.521Z,92.42
2023-01-12T01:22:12.296Z,92.40
2023-01-12T01:24:39.446Z,92.38
2023-01-12T01:27:06.462Z,92.34
2023-01-12T01:29:33.358Z,92.25
2023-01-12T01:32:00.269Z,92.66
2023-01-12T01:34:27.249Z,92.86
2023-01-12T01:36:54.165Z,92.63
2023-01-12T01:39:21.119Z,92.26
2023-01-12T01:41:48.177Z,92.45
2023-01-12T01:44:30.390Z,92.51
2023-01-12T01:47:10.835Z,92.77
2023-01-12T01:49:51.402Z,92.56
2023-01-12T01:52:28.925Z,92.45
2023-01-12T01:55:07.389Z,92.66
2023-01-12T01:57:48.908Z,92.27
2023-01-12T02:00:16.899Z,92.15
2023-01-12T02:02:46.230Z,92.08
2023-01-12T02:05:19.982Z,91.99
2023-01-12T02:07:49.681Z,92.21
2023-01-12T02:10:18.054Z,92.30
2023-01-12T02:13:04.396Z,92.10
2023-01-12T02:16:03.718Z,91.94
2023-01-12T02:18:48.388Z,91.76
2023-01-12T02:22:02.565Z,91.75
2023-01-12T02:25:14.895Z,91.52
2023-01-12T02:28:16.813Z,91.71
2023-01-12T02:31:27.428Z,91.88
2023-01-12T02:34:20.143Z,91.14
2023-01-12T02:37:01.276Z,91.13
2023-01-12T02:39:44.809Z,91.83
2023-01-12T02:42:40.734Z,91.47
2023-01-12T02:45:45.925Z,91.33
2023-01-12T02:48:57.370Z,91.59
2023-01-12T02:51:40.258Z,91.78
2023-01-12T02:54:12.593Z,91.46
2023-01-12T02:56:53.218Z,91.68
2023-01-12T02:59:30.428Z,91.76
2023-01-12T03:02:08.811Z,91.07
2023-01-12T03:04:36.485Z,91.23
2023-01-12T03:07:03.268Z,91.49
2023-01-12T03:09:39.433Z,91.52
2023-01-12T03:12:29.177Z,91.43
2023-01-12T03:15:02.092Z,91.05
2023-01-12T03:17:44.303Z,90.81
2023-01-12T03:20:32.864Z,90.75
2023-01-12T03:23:17.271Z,91.00
2023-01-12T03:25:45.350Z,91.32
2023-01-12T03:28:17.433Z,91.24
2023-01-12T03:30:56.396Z,91.07
2023-01-12T03:33:24.652Z,91.01
2023-01-12T03:36:05.708Z,91.24
2023-01-12T03:38:43.883Z,90.88
2023-01-12T03:41:25.644Z,91.18
2023-01-12T03:44:00.281Z,90.76
2023-01-12T03:46:37.862Z,90.88
2023-01-12T03:49:23.267Z,90.52
2023-01-12T03:51:53.130Z,90.48
2023-01-12T03:54:21.852Z,90.97
2023-01-12T03:56:49.992Z,90.63
2023-01-12T03:59:17.002Z,90.22
2023-01-12T04:01:44.077Z,89.88
2023-01-12T04:04:11.044Z,90.39
2023-01-12T04:06:37.952Z,90.54
2023-01-12T04:09:04.860Z,90.28
2023-01-12T04:11:50.403Z,90.08
2023-01-12T04:14:17.314Z,90.19
2023-01-12T04:16:44.230Z,89.91
2023-01-12T04:19:11.150Z,90.06
2023-01-12T04:21:56.425Z,89.89
2023-01-12T04:24:23.355Z,90.11
2023-01-12T04:26:50.354Z,90.25
2023-01-12T04:29:17.276Z,90.19
2023-01-12T04:31:44.231Z,90.42
2023-01-12T04:34:11.174Z,90.12
2023-01-12T04:36:38.158Z,90.27
2023-01-12T04:39:05.082Z,90.16
2023-01-12T04:41:32.007Z,89.87
2023-01-12T04:43:58.971Z,90.12
2023-01-12T04:46:26.090Z,90.04
2023-01-12T04:48:53.016Z,90.14
2023-01-12T04:51:19.971Z,89.79
2023-01-12T04:53:48.195Z,89.99
2023-01-12T04:56:15.228Z,90.36
2023-01-12T04:58:42.380Z,89.77
2023-01-12T05:01:19.048Z,90.11
2023-01-12T05:03:46.321Z,89.78
2023-01-12T05:06:13.390Z,89.83
2023-01-12T05:08:58.741Z,90.18
2023-01-12T05:11:28.414Z,89.71
2023-01-12T05:13:56.614Z,89.88
2023-01-12T05:16:24.497Z,89.87
2023-01-12T05:18:53.258Z,89.74
2023-01-12T05:21:22.227Z,89.42
2023-01-12T05:23:53.226Z,89.59
2023-01-12T05:26:20.480Z,89.33
2023-01-12T05:28:50.997Z,89.38
2023-01-12T05:31:19.527Z,90.03
2023-01-12T05:33:47.056Z,89.65
2023-01-12T05:36:16.938Z,89.39
2023-01-12T05:38:44.143Z,89.83
2023-01-12T05:41:14.371Z,89.81
2023-01-12T05:43:51.641Z,89.42
2023-01-12T05:46:29.441Z,89.82
2023-01-12T05:49:01.017Z,89.83
2023-01-12T05:51:30.715Z,89.39
2023-01-12T05:53:57.722Z,89.95
2023-01-12T05:56:27.922Z,89.92
2023-01-12T05:59:00.547Z,89.49
2023-01-12T06:01:29.035Z,89.87
2023-01-12T06:03:59.575Z,89.87
2023-01-12T06:06:32.594Z,89.48
2023-01-12T06:09:01.110Z,89.27
2023-01-12T06:11:46.527Z,89.35
2023-01-12T06:14:13.742Z,89.45
2023-01-12T06:16:42.499Z,89.47
2023-01-12T06:19:12.604Z,90.08
2023-01-12T06:21:40.416Z,89.53
2023-01-12T06:24:08.168Z,89.68
2023-01-12T06:26:35.211Z,89.58
2023-01-12T06:29:05.259Z,90.00
2023-01-12T06:31:32.516Z,90.05
2023-01-12T06:33:59.465Z,89.83
2023-01-12T06:36:26.399Z,89.47
2023-01-12T06:38:53.308Z,89.87
2023-01-12T06:41:38.767Z,89.88
2023-01-12T06:44:05.710Z,89.67
2023-01-12T06:46:32.665Z,89.44
2023-01-12T06:48:59.826Z,89.57
2023-01-12T06:51:26.899Z,89.33
2023-01-12T06:53:54.029Z,89.32
2023-01-12T06:56:21.495Z,89.62
2023-01-12T06:58:48.691Z,89.67
2023-01-12T07:01:16.843Z,89.77
2023-01-12T07:03:44.083Z,89.63
2023-01-12T07:06:11.166Z,89.05
2023-01-12T07:08:38.077Z,88.88
2023-01-12T07:11:12.088Z,89.36
2023-01-12T07:13:39.160Z,89.51
2023-01-12T07:16:06.881Z,89.01
2023-01-12T07:18:33.831Z,89.21
2023-01-12T07:21:05.651Z,89.19
2023-01-12T07:23:32.592Z,89.10
2023-01-12T07:25:59.653Z,89.66
2023-01-12T07:28:26.925Z,89.52
2023-01-12T07:30:59.414Z,89.46
2023-01-12T07:33:26.462Z,88.95
2023-01-12T07:35:54.329Z,88.83
2023-01-12T07:38:21.229Z,89.21
2023-01-12T07:40:48.135Z,89.17
2023-01-12T07:43:17.155Z,89.25
2023-01-12T07:45:44.060Z,88.84
2023-01-12T07:48:11.371Z,89.11
2023-01-12T07:50:38.389Z,88.88
2023-01-12T07:53:05.295Z,89.05
2023-01-12T07:55:32.484Z,88.80
2023-01-12T07:58:06.409Z,89.13
2023-01-12T08:00:33.399Z,88.59
2023-01-12T08:03:12.386Z,88.79
2023-01-12T08:05:39.552Z,89.03
2023-01-12T08:08:07.410Z,88.93
2023-01-12T08:10:34.490Z,88.97
2023-01-12T08:13:01.509Z,88.39
2023-01-12T08:15:35.528Z,88.91
2023-01-12T08:18:15.669Z,88.80
2023-01-12T08:20:43.922Z,88.74
2023-01-12T08:23:21.656Z,88.53
2023-01-12T08:25:56.454Z,88.59
2023-01-12T08:28:38.046Z,88.69
2023-01-12T08:31:09.893Z,88.39
2023-01-12T08:33:38.425Z,88.51
2023-01-12T08:36:08.275Z,87.99
2023-01-12T08:38:35.291Z,88.14
2023-01-12T08:41:20.722Z,88.14
2023-01-12T08:44:02.479Z,88.26
2023-01-12T08:46:39.745Z,88.60
2023-01-12T08:49:11.757Z,88.20
2023-01-12T08:51:45.063Z,88.33
2023-01-12T08:54:16.318Z,87.96
2023-01-12T08:56:43.687Z,88.39
2023-01-12T08:59:10.865Z,88.00
2023-01-12T09:01:37.844Z,88.50
2023-01-12T09:04:05.757Z,88.23
2023-01-12T09:06:41.050Z,88.31
2023-01-12T09:09:12.063Z,88.46
2023-01-12T09:11:40.564Z,88.64
2023-01-12T09:14:07.729Z,88.67
2023-01-12T09:16:34.856Z,88.64
2023-01-12T09:19:02.296Z,88.57
2023-01-12T09:21:31.228Z,88.59
2023-01-12T09:23:58.902Z,88.22
2023-01-12T09:26:32.119Z,87.95
2023-01-12T09:29:01.192Z,88.41
2023-01-12T09:31:30.386Z,88.00
2023-01-12T09:33:58.391Z,88.53
2023-01-12T09:36:28.721Z,88.47
2023-01-12T09:38:57.213Z,87.71
2023-01-12T09:41:45.425Z,87.97
2023-01-12T09:44:57.509Z,88.30
2023-01-12T09:47:51.572Z,88.00
2023-01-12T09:50:33.477Z,87.89
2023-01-12T09:53:22.311Z,88.25
2023-01-12T09:56:30.541Z,87.98
2023-01-12T09:59:37.323Z,87.90
2023-01-12T10:02:11.821Z,87.89
2023-01-12T10:04:57.887Z,87.59
2023-01-12T10:07:24.846Z,88.01
2023-01-12T10:09:51.780Z,87.92
2023-01-12T10:12:31.057Z,87.75
2023-01-12T10:15:03.609Z,88.09
2023-01-12T10:17:50.545Z,87.44
2023-01-12T10:20:47.403Z,87.75
2023-01-12T10:23:24.487Z,87.73
2023-01-12T10:26:07.627Z,86.97
2023-01-12T10:28:36.783Z,87.53
2023-01-12T10:31:04.771Z,87.62
2023-01-12T10:33:34.556Z,87.49
2023-01-12T10:36:08.899Z,87.52
2023-01-12T10:38:52.510Z,87.44
2023-01-12T10:41:21.947Z,87.34
2023-01-12T10:44:01.025Z,87.44
2023-01-12T10:46:35.887Z,87.12
2023-01-12T10:49:23.598Z,87.53
2023-01-12T10:51:59.387Z,87.05
2023-01-12T10:54:37.131Z,87.27
2023-01-12T10:57:23.161Z,86.94
2023-01-12T10:59:58.248Z,87.65
2023-01-12T11:02:28.849Z,87.34
2023-01-12T11:04:55.924Z,87.05
2023-01-12T11:07:31.364Z,87.21
2023-01-12T11:10:25.828Z,87.00
2023-01-12T11:13:03.539Z,87.13
2023-01-12T11:15:38.658Z,87.40
2023-01-12T11:18:32.672Z,86.86
2023-01-12T11:21:14.546Z,86.14
2023-01-12T11:24:04.797Z,86.55
2023-01-12T11:26:46.086Z,86.67
2023-01-12T11:29:37.457Z,86.52
2023-01-12T11:32:32.415Z,86.55
2023-01-12T11:35:34.986Z,86.07
2023-01-12T11:38:13.015Z,86.79
2023-01-12T11:40:41.534Z,86.60
2023-01-12T11:43:41.905Z,86.00
2023-01-12T11:46:23.729Z,86.55
2023-01-12T11:49:42.893Z,86.35
2023-01-12T11:52:13.160Z,86.55
2023-01-12T11:54:41.887Z,86.78
2023-01-12T11:57:41.323Z,86.65
2023-01-12T12:01:01.627Z,86.88
2023-01-12T12:04:01.501Z,86.81
2023-01-12T12:07:15.992Z,86.63
2023-01-12T12:10:15.123Z,86.54
2023-01-12T12:13:26.157Z,86.60
2023-01-12T12:15:58.746Z,86.78
2023-01-12T12:19:13.444Z,86.96
2023-01-12T12:21:50.276Z,86.88
2023-01-12T12:24:54.562Z,87.07
2023-01-12T12:27:35.463Z,86.80
2023-01-12T12:30:40.492Z,86.94
2023-01-12T12:34:00.715Z,86.58
2023-01-12T12:37:11.635Z,86.88
2023-01-12T12:39:55.306Z,87.07
2023-01-12T12:43:02.550Z,87.26
2023-01-12T12:45:50.977Z,86.94
2023-01-12T12:48:45.201Z,87.32
2023-01-12T12:51:13.749Z,86.99
2023-01-12T12:53:47.369Z,87.37
2023-01-12T12:56:18.322Z,87.37
2023-01-12T12:58:52.062Z,86.91
2023-01-12T13:01:24.841Z,87.57
2023-01-12T13:03:58.043Z,87.54
2023-01-12T13:06:35.020Z,87.48
2023-01-12T13:09:25.089Z,87.72
2023-01-12T13:12:29.681Z,87.22
2023-01-12T13:15:29.243Z,87.59
2023-01-12T13:17:56.334Z,87.49
2023-01-12T13:20:36.029Z,87.05
2023-01-12T13:23:04.638Z,87.18
2023-01-12T13:25:31.433Z,87.62
2023-01-12T13:28:01.338Z,87.30
2023-01-12T13:30:31.329Z,87.57
2023-01-12T13:33:14.648Z,87.67
2023-01-12T13:35:44.354Z,87.54
2023-01-12T13:38:44.580Z,87.62
2023-01-12T13:41:39.599Z,87.10
2023-01-12T13:44:13.549Z,87.40
2023-01-12T13:46:49.058Z,87.53
2023-01-12T13:49:31.526Z,87.39
2023-01-12T13:52:18.644Z,87.64
2023-01-12T13:54:51.048Z,87.29
2023-01-12T13:57:22.958Z,87.16
2023-01-12T14:00:08.546Z,87.52
2023-01-12T14:02:41.942Z,87.16
2023-01-12T14:05:54.762Z,87.34
2023-01-12T14:08:58.442Z,87.68
2023-01-12T14:12:01.733Z,87.39
2023-01-12T14:14:52.959Z,87.42
2023-01-12T14:17:52.606Z,87.47
2023-01-12T14:20:31.035Z,87.69
2023-01-12T14:23:27.040Z,87.31
2023-01-12T14:26:09.155Z,87.43
2023-01-12T14:28:38.231Z,87.69
2023-01-12T14:31:45.528Z,88.08
2023-01-12T14:34:32.704Z,87.92
2023-01-12T14:37:05.578Z,87.89
2023-01-12T14:39:40.899Z,87.95
2023-01-12T14:42:36.383Z,87.92
2023-01-12T14:45:44.720Z,88.22
2023-01-12T14:48:33.973Z,87.81
2023-01-12T14:51:38.039Z,88.17
2023-01-12T14:54:07.844Z,88.17
2023-01-12T14:56:48.649Z,88.22
2023-01-12T14:59:23.690Z,87.97
2023-01-12T15:02:07.210Z,88.14
2023-01-12T15:04:34.234Z,88.28
2023-01-12T15:07:06.947Z,88.09
2023-01-12T15:09:50.435Z,87.87
2023-01-12T15:12:54.458Z,88.14
2023-01-12T15:15:23.584Z,88.18
2023-01-12T15:18:12.431Z,87.74
2023-01-12T15:21:02.482Z,88.16
2023-01-12T15:23:53.350Z,87.77
2023-01-12T15:26:21.680Z,87.74
2023-01-12T15:28:49.670Z,88.30
2023-01-12T15:31:25.173Z,88.14
2023-01-12T15:33:52.279Z,88.25
2023-01-12T15:36:19.185Z,88.24
2023-01-12T15:38:46.182Z,87.85
2023-01-12T15:41:45.155Z,87.85
2023-01-12T15:44:20.663Z,87.99
2023-01-12T15:46:47.920Z,87.71
2023-01-12T15:49:15.788Z,88.05
2023-01-12T15:51:47.613Z,87.80
2023-01-12T15:54:17.867Z,88.06
2023-01-12T15:56:45.377Z,87.58
2023-01-12T15:59:12.383Z,88.06
2023-01-12T16:01:47.612Z,87.27
2023-01-12T16:07:10.591Z,87.82
2023-01-12T16:09:37.536Z,87.50
2023-01-12T16:12:04.948Z,87.21
2023-01-12T16:14:31.871Z,87.60
2023-01-12T16:16:58.895Z,87.62
2023-01-12T16:19:26.251Z,87.33
2023-01-12T16:21:54.965Z,87.68
2023-01-12T16:24:26.439Z,87.40
2023-01-12T16:26:53.731Z,87.30
2023-01-12T16:29:21.987Z,87.09
2023-01-12T16:31:49.211Z,87.22
2023-01-12T16:34:18.303Z,87.15
2023-01-12T16:36:45.553Z,87.22
2023-01-12T16:39:13.166Z,87.13
2023-01-12T16:41:40.232Z,87.32
2023-01-12T16:44:07.146Z,87.23
2023-01-12T16:46:34.087Z,87.55
2023-01-12T16:49:04.026Z,87.47
2023-01-12T16:51:32.971Z,87.71
2023-01-12T16:54:02.570Z,87.25
2023-01-12T16:56:29.639Z,87.38
2023-01-12T16:58:57.711Z,87.72
2023-01-12T17:01:26.028Z,87.67
2023-01-12T17:03:57.587Z,87.17
2023-01-12T17:06:26.986Z,87.13
2023-01-12T17:08:54.855Z,87.56
2023-01-12T17:11:27.407Z,87.61
2023-01-12T17:13:56.606Z,87.74
2023-01-12T17:16:28.048Z,87.46
2023-01-12T17:18:55.176Z,87.64
2023-01-12T17:21:22.596Z,87.57
2023-01-12T17:23:49.700Z,87.52
2023-01-12T17:26:18.249Z,87.54
2023-01-12T17:28:47.233Z,87.19
2023-01-12T17:31:19.073Z,87.36
2023-01-12T17:33:46.569Z,87.88
2023-01-12T17:36:14.332Z,87.64
2023-01-12T17:38:41.420Z,87.32
2023-01-12T17:41:33.016Z,87.25
2023-01-12T17:44:03.014Z,87.20
2023-01-12T17:46:31.106Z,87.38
2023-01-12T17:49:00.198Z,87.50
2023-01-12T17:51:27.989Z,87.59
2023-01-12T17:53:59.409Z,87.49
2023-01-12T17:56:29.047Z,87.12
2023-01-12T17:58:56.329Z,87.74
2023-01-12T18:01:26.244Z,87.33
2023-01-12T18:03:53.605Z,87.55
2023-01-12T18:06:26.614Z,87.12
2023-01-12T18:08:56.486Z,87.10
2023-01-12T18:11:24.356Z,87.14
2023-01-12T18:13:51.407Z,87.23
2023-01-12T18:16:18.588Z,87.16
2023-01-12T18:18:46.102Z,87.57
2023-01-12T18:21:17.414Z,87.39
2023-01-12T18:23:44.759Z,87.53
2023-01-12T18:26:18.436Z,87.06
2023-01-12T18:28:45.613Z,87.43
2023-01-12T18:31:19.791Z,87.00
2023-01-12T18:33:53.482Z,87.39
2023-01-12T18:36:24.054Z,87.43
2023-01-12T18:38:52.491Z,86.99
2023-01-12T18:41:39.401Z,87.42
2023-01-12T18:44:06.808Z,87.58
2023-01-12T18:47:01.843Z,87.10
2023-01-12T18:49:34.550Z,87.32
2023-01-12T18:52:21.535Z,87.33
2023-01-12T18:54:51.668Z,87.26
2023-01-12T18:57:22.292Z,87.33
2023-01-12T18:59:53.459Z,87.35
2023-01-12T19:02:21.099Z,86.99
2023-01-12T19:04:52.347Z,87.24
2023-01-12T19:07:41.559Z,86.75
2023-01-12T19:10:09.439Z,86.97
2023-01-12T19:12:36.385Z,87.22
2023-01-12T19:15:21.968Z,86.83
2023-01-12T19:17:48.951Z,86.50
2023-01-12T19:20:17.156Z,86.56
2023-01-12T19:23:02.821Z,86.62
2023-01-12T19:25:48.100Z,86.82
2023-01-12T19:28:32.751Z,86.57
2023-01-12T19:31:10.648Z,86.40
2023-01-12T19:33:39.194Z,86.32
2023-01-12T19:36:10.212Z,86.51
2023-01-12T19:38:38.670Z,85.94
2023-01-12T19:41:14.172Z,85.90
2023-01-12T19:43:45.114Z,85.74
2023-01-12T19:46:14.882Z,85.87
2023-01-12T19:48:41.902Z,86.03
2023-01-12T19:51:11.072Z,85.55
2023-01-12T19:53:40.444Z,85.95
2023-01-12T19:56:12.406Z,85.79
2023-01-12T19:58:39.930Z,85.62
2023-01-12T20:01:08.318Z,86.16
2023-01-12T20:03:36.350Z,86.13
2023-01-12T20:06:07.672Z,85.77
2023-01-12T20:08:34.722Z,86.08
2023-01-12T20:11:04.960Z,86.05
2023-01-12T20:13:32.967Z,85.51
2023-01-12T20:16:07.300Z,86.06
2023-01-12T20:18:34.361Z,85.54
2023-01-12T20:21:03.248Z,85.55
2023-01-12T20:23:30.176Z,85.78
2023-01-12T20:25:58.175Z,85.48
2023-01-12T20:28:25.896Z,85.60
2023-01-12T20:30:52.902Z,85.87
2023-01-12T20:33:20.118Z,85.86
2023-01-12T20:35:48.727Z,85.72
2023-01-12T20:38:16.807Z,85.98
2023-01-12T20:40:45.580Z,85.81
2023-01-12T20:43:13.234Z,85.46
2023-01-12T20:45:41.740Z,85.95
2023-01-12T20:48:10.792Z,85.96
2023-01-12T20:50:45.423Z,85.65
2023-01-12T20:53:13.707Z,85.84
2023-01-12T20:55:48.397Z,85.77
2023-01-12T20:58:16.452Z,85.67
2023-01-12T21:00:44.287Z,85.36
2023-01-12T21:03:11.392Z,85.70
2023-01-12T21:05:42.908Z,85.87
2023-01-12T21:08:10.931Z,85.95
2023-01-12T21:10:40.245Z,85.63
2023-01-12T21:13:07.432Z,85.60
2023-01-12T21:15:34.366Z,86.04
2023-01-12T21:18:01.355Z,86.26
2023-01-12T21:20:28.277Z,85.79
2023-01-12T21:22:55.375Z,86.21
2023-01-12T21:25:25.938Z,86.26
2023-01-12T21:27:52.976Z,86.05
2023-01-12T21:30:20.038Z,85.94
2023-01-12T21:32:48.537Z,86.32
2023-01-12T21:35:15.772Z,85.99
2023-01-12T21:37:42.716Z,86.29
2023-01-12T21:40:10.742Z,85.80
2023-01-12T21:42:55.972Z,86.45
2023-01-12T21:45:23.708Z,85.77
2023-01-12T21:47:50.624Z,86.47
2023-01-12T21:50:17.534Z,85.91
2023-01-12T21:52:45.190Z,86.30
2023-01-12T21:55:13.609Z,85.86
2023-01-12T21:57:42.439Z,85.96
2023-01-12T22:00:10.400Z,85.92
2023-01-12T22:02:40.463Z,85.96
2023-01-12T22:05:07.857Z,86.02
2023-01-12T22:07:34.845Z,85.50
2023-01-12T22:10:19.836Z,85.52
2023-01-12T22:13:00.372Z,85.73
2023-01-12T22:15:30.053Z,85.68
2023-01-12T22:17:57.099Z,85.31
2023-01-12T22:20:24.439Z,85.88
2023-01-12T22:22:52.778Z,85.69
2023-01-12T22:25:20.517Z,85.34
2023-01-12T22:27:47.525Z,85.49
2023-01-12T22:30:18.631Z,85.46
2023-01-12T22:32:45.621Z,85.43
2023-01-12T22:35:13.484Z,85.04
2023-01-12T22:37:41.275Z,85.21
2023-01-12T22:40:11.111Z,85.13
2023-01-12T22:42:57.081Z,85.59
2023-01-12T22:45:24.082Z,85.64
2023-01-12T22:47:53.627Z,85.49
2023-01-12T22:50:21.741Z,85.54
2023-01-12T22:52:52.964Z,85.04
2023-01-12T22:55:21.886Z,84.80
2023-01-12T22:57:49.310Z,84.77
2023-01-12T23:00:17.263Z,84.76
2023-01-12T23:02:59.884Z,85.09
2023-01-12T23:05:47.708Z,84.99
2023-01-12T23:08:16.603Z,84.59
2023-01-12T23:10:44.285Z,84.99
2023-01-12T23:13:21.251Z,84.33
2023-01-12T23:15:58.132Z,84.95
2023-01-12T23:18:31.638Z,83.76
2023-01-12T23:21:21.479Z,84.72
2023-01-12T23:23:54.333Z,84.45
2023-01-12T23:26:32.882Z,84.46
2023-01-12T23:29:02.945Z,84.32
2023-01-12T23:31:33.351Z,84.36
2023-01-12T23:34:01.492Z,84.43
2023-01-12T23:36:30.517Z,84.94
2023-01-12T23:39:03.174Z,84.50
2023-01-12T23:41:33.693Z,83.89
2023-01-12T23:44:05.616Z,84.08
2023-01-12T23:46:39.343Z,84.31
2023-01-12T23:49:06.586Z,84.17
2023-01-12T23:51:33.731Z,84.19
2023-01-12T23:54:02.231Z,84.77
2023-01-12T23:56:32.436Z,84.45
2023-01-12T23:58:59.511Z,84.01
